Terminal Aerodrome Forecast
Issued by NWS Tampa Bay Area, FL

Home | Current Version | Previous Version | Text Only | Print | Product List | Glossary On
Versions: 1 2 3 4 5 6 7 8 9 10 11 12 13 14 15 16 17 18 19 20 21 22 23 24
000
FTUS42 KTBW 210855 AAA
TAFTPA
TAF AMD
KTPA 210855Z 2108/2206 10006KT P6SM FEW025 SCT250
     FM211800 12007KT P6SM SCT035 BKN200
     FM220000 06005KT P6SM SCT250=

USA.gov is the U.S. government's official web portal to all federal, state and local government web resources and services.